createdAt,value
2018-11-25T00:01:28.661Z,23.97
2018-11-25T00:06:31.064Z,23.67
2018-11-25T00:11:33.481Z,22.80
2018-11-25T00:16:35.878Z,22.17
2018-11-25T00:21:38.234Z,25.23
2018-11-25T00:26:41.582Z,21.07
2018-11-25T00:31:44.637Z,22.87
2018-11-25T00:36:47.170Z,21.47
2018-11-25T00:41:49.528Z,21.83
2018-11-25T00:46:51.909Z,22.73
2018-11-25T00:51:54.371Z,20.37
2018-11-25T00:56:56.766Z,23.07
2018-11-25T01:02:00.028Z,21.23
2018-11-25T01:07:02.418Z,20.77
2018-11-25T01:12:05.281Z,21.97
2018-11-25T01:17:07.748Z,20.67
2018-11-25T01:22:10.839Z,23.37
2018-11-25T01:27:13.200Z,21.80
2018-11-25T01:32:15.633Z,22.83
2018-11-25T01:37:17.991Z,23.97
2018-11-25T01:42:20.530Z,21.53
2018-11-25T01:47:22.970Z,21.40
2018-11-25T01:52:25.524Z,23.03
2018-11-25T01:57:27.850Z,22.13
2018-11-25T02:02:30.166Z,23.70
2018-11-25T02:07:32.807Z,24.43
2018-11-25T02:12:35.222Z,22.80
2018-11-25T02:17:37.772Z,22.33
2018-11-25T02:22:40.120Z,22.03
2018-11-25T02:27:42.465Z,20.97
2018-11-25T02:32:45.504Z,23.53
2018-11-25T02:37:47.856Z,21.80
2018-11-25T02:42:50.435Z,20.47
2018-11-25T02:47:53.905Z,22.13
2018-11-25T02:53:12.478Z,23.67
2018-11-25T02:58:14.859Z,20.60
2018-11-25T03:03:17.199Z,22.47
2018-11-25T03:08:19.561Z,21.63
2018-11-25T03:13:21.916Z,23.27
2018-11-25T03:18:24.363Z,21.50
2018-11-25T03:23:26.720Z,21.47
2018-11-25T03:28:29.077Z,21.60
2018-11-25T03:33:31.465Z,22.30
2018-11-25T03:38:33.803Z,23.17
2018-11-25T03:43:36.168Z,21.87
2018-11-25T03:48:39.802Z,23.03
2018-11-25T03:53:42.134Z,22.37
2018-11-25T03:58:44.668Z,22.77
2018-11-25T04:03:47.007Z,23.07
2018-11-25T04:08:49.519Z,23.87
2018-11-25T04:13:51.859Z,21.57
2018-11-25T04:18:54.252Z,22.20
2018-11-25T04:23:56.760Z,22.87
2018-11-25T04:28:59.133Z,21.23
2018-11-25T04:34:01.600Z,23.43
2018-11-25T04:39:07.441Z,21.13
2018-11-25T04:44:09.813Z,22.27
2018-11-25T04:49:12.264Z,23.43
2018-11-25T04:54:14.567Z,19.33
2018-11-25T04:59:16.874Z,20.83
2018-11-25T05:04:19.370Z,22.90
2018-11-25T05:09:21.663Z,23.97
2018-11-25T05:14:23.976Z,22.43
2018-11-25T05:19:26.440Z,23.83
2018-11-25T05:24:29.039Z,23.90
2018-11-25T05:29:31.328Z,21.67
2018-11-25T05:34:33.684Z,23.10
2018-11-25T05:39:36.083Z,24.63
2018-11-25T05:44:38.347Z,24.13
2018-11-25T05:49:40.689Z,23.27
2018-11-25T05:54:42.966Z,21.53
2018-11-25T05:59:45.240Z,22.37
2018-11-25T06:04:47.519Z,21.30
2018-11-25T06:09:49.795Z,22.20
2018-11-25T06:14:52.060Z,22.77
2018-11-25T06:19:54.404Z,22.63
2018-11-25T06:24:56.713Z,23.10
2018-11-25T06:29:58.988Z,24.87
2018-11-25T06:35:01.304Z,27.27
2018-11-25T06:40:06.114Z,24.40
2018-11-25T06:45:12.903Z,24.70
2018-11-25T06:50:15.431Z,24.67
2018-11-25T06:55:17.737Z,21.87
2018-11-25T07:00:22.542Z,26.60
2018-11-25T07:05:24.825Z,23.03
2018-11-25T07:10:27.152Z,24.57
2018-11-25T07:15:29.598Z,23.93
2018-11-25T07:20:32.171Z,25.07
2018-11-25T07:25:34.714Z,25.43
2018-11-25T07:30:37.532Z,23.40
2018-11-25T07:35:39.804Z,24.17
2018-11-25T07:40:42.105Z,24.83
2018-11-25T07:45:44.374Z,24.20
2018-11-25T07:50:46.878Z,26.37
2018-11-25T07:55:49.426Z,25.23
2018-11-25T08:00:51.695Z,24.40
2018-11-25T08:05:54.174Z,23.03
2018-11-25T08:10:56.540Z,25.93
2018-11-25T08:15:58.824Z,23.63
2018-11-25T08:21:01.227Z,22.40
2018-11-25T08:26:03.734Z,22.70
2018-11-25T08:31:06.123Z,22.67
2018-11-25T08:36:08.430Z,23.60
2018-11-25T08:41:10.716Z,23.87
2018-11-25T08:46:13.060Z,23.43
2018-11-25T08:51:15.436Z,24.03
2018-11-25T09:01:32.700Z,22.50
2018-11-25T09:06:34.975Z,22.70
2018-11-25T09:11:37.251Z,26.63
2018-11-25T09:16:39.546Z,23.13
2018-11-25T09:21:42.434Z,26.37
2018-11-25T09:26:44.690Z,26.33
2018-11-25T09:31:47.030Z,23.80
2018-11-25T09:36:50.340Z,24.33
2018-11-25T09:41:52.759Z,21.90
2018-11-25T09:46:55.392Z,22.70
2018-11-25T09:51:57.965Z,22.03
2018-11-25T09:57:00.342Z,21.90
2018-11-25T10:02:02.670Z,20.23
2018-11-25T10:07:05.138Z,22.73
2018-11-25T10:12:08.536Z,21.07
2018-11-25T10:17:10.948Z,19.93
2018-11-25T10:22:13.515Z,20.60
2018-11-25T10:27:15.915Z,21.27
2018-11-25T10:32:18.775Z,19.50
2018-11-25T10:37:21.175Z,20.03
2018-11-25T10:42:23.576Z,18.83
2018-11-25T10:47:25.949Z,19.60
2018-11-25T10:52:28.668Z,20.70
2018-11-25T10:57:30.972Z,22.27
2018-11-25T11:02:39.111Z,20.87
2018-11-25T11:07:44.756Z,20.13
2018-11-25T11:12:47.085Z,19.57
2018-11-25T11:17:49.499Z,19.70
2018-11-25T11:22:51.987Z,19.40
2018-11-25T11:27:54.384Z,19.03
2018-11-25T11:32:56.797Z,19.23
2018-11-25T11:37:59.799Z,20.73
2018-11-25T11:43:02.852Z,21.87
2018-11-25T11:48:06.012Z,21.97
2018-11-25T11:53:08.512Z,22.43
2018-11-25T11:58:10.935Z,21.10
2018-11-25T12:03:13.238Z,20.17
2018-11-25T12:08:15.653Z,16.77
2018-11-25T12:13:18.603Z,17.60
2018-11-25T12:18:21.026Z,16.90
2018-11-25T12:23:23.432Z,17.20
2018-11-25T12:28:25.738Z,14.90
2018-11-25T12:33:28.083Z,15.77
2018-11-25T12:38:30.395Z,15.20
2018-11-25T12:43:33.115Z,17.87
2018-11-25T12:48:35.420Z,19.57
2018-11-25T12:53:37.853Z,17.63
2018-11-25T12:58:40.213Z,16.27
2018-11-25T13:03:42.630Z,16.23
2018-11-25T13:08:44.940Z,17.77
2018-11-25T13:13:47.326Z,17.40
2018-11-25T13:18:49.762Z,16.60
2018-11-25T13:23:52.147Z,16.93
2018-11-25T13:28:54.592Z,16.63
2018-11-25T13:33:57.119Z,15.73
2018-11-25T13:38:59.579Z,18.43
2018-11-25T13:44:01.896Z,18.13
2018-11-25T13:49:04.345Z,21.30
2018-11-25T13:54:06.912Z,19.07
2018-11-25T13:59:09.227Z,20.17
2018-11-25T14:04:11.564Z,19.07
2018-11-25T14:09:14.902Z,19.10
2018-11-25T14:14:17.205Z,20.80
2018-11-25T14:19:19.539Z,22.03
2018-11-25T14:24:22.248Z,24.40
2018-11-25T14:29:24.900Z,21.73
2018-11-25T14:34:27.231Z,22.77
2018-11-25T14:39:29.576Z,24.17
2018-11-25T14:44:31.900Z,23.87
2018-11-25T14:49:34.237Z,27.70
2018-11-25T14:54:36.616Z,24.90
2018-11-25T14:59:39.108Z,25.47
2018-11-25T15:04:41.844Z,27.83
2018-11-25T15:09:44.146Z,26.43
2018-11-25T15:14:46.480Z,27.47
2018-11-25T15:19:49.775Z,30.53
2018-11-25T15:24:52.139Z,30.37
2018-11-25T15:29:54.800Z,32.47
2018-11-25T15:34:57.137Z,29.00
2018-11-25T15:39:59.491Z,33.20
2018-11-25T15:45:01.856Z,31.97
2018-11-25T15:50:07.549Z,36.17
2018-11-25T15:55:12.390Z,29.93
2018-11-25T16:00:16.982Z,30.63
2018-11-25T16:05:22.807Z,28.87
2018-11-25T16:10:25.175Z,32.70
2018-11-25T16:15:28.233Z,29.60
2018-11-25T16:20:30.727Z,33.03
2018-11-25T16:25:34.904Z,34.70
2018-11-25T16:30:37.412Z,31.60
2018-11-25T16:35:39.748Z,33.57
2018-11-25T16:40:42.304Z,33.07
2018-11-25T16:45:44.679Z,30.70
2018-11-25T16:50:47.214Z,30.90
2018-11-25T16:55:50.031Z,36.93
2018-11-25T17:00:53.374Z,33.43
2018-11-25T17:05:56.394Z,36.53
2018-11-25T17:10:59.453Z,35.10
2018-11-25T17:16:01.871Z,31.03
2018-11-25T17:21:04.301Z,35.27
2018-11-25T17:26:06.694Z,35.60
2018-11-25T17:31:09.096Z,34.50
2018-11-25T17:36:11.404Z,36.37
2018-11-25T17:41:13.901Z,37.80
2018-11-25T17:46:16.211Z,40.77
2018-11-25T17:51:18.564Z,40.17
2018-11-25T17:56:21.491Z,39.53
2018-11-25T18:01:23.875Z,39.43
2018-11-25T18:06:26.269Z,39.07
2018-11-25T18:11:29.073Z,41.53
2018-11-25T18:16:31.452Z,44.77
2018-11-25T18:21:34.036Z,50.93
2018-11-25T18:26:36.623Z,52.90
2018-11-25T18:31:40.453Z,51.07
2018-11-25T18:36:42.752Z,52.43
2018-11-25T18:41:45.055Z,46.57
2018-11-25T18:46:48.539Z,47.83
2018-11-25T18:51:50.847Z,50.20
2018-11-25T18:56:53.180Z,46.80
2018-11-25T19:01:59.474Z,43.93
2018-11-25T19:07:02.073Z,46.10
2018-11-25T19:12:04.612Z,48.43
2018-11-25T19:17:06.944Z,42.70
2018-11-25T19:22:09.227Z,44.27
2018-11-25T19:27:11.615Z,45.63
2018-11-25T19:32:14.068Z,46.93
2018-11-25T19:37:16.428Z,51.13
2018-11-25T19:42:18.717Z,48.73
2018-11-25T19:47:21.050Z,51.90
2018-11-25T19:52:23.372Z,57.87
2018-11-25T19:57:25.861Z,59.77
2018-11-25T20:02:28.175Z,58.80
2018-11-25T20:07:30.539Z,61.17
2018-11-25T20:12:39.064Z,62.17
2018-11-25T20:17:41.423Z,60.70
2018-11-25T20:22:44.276Z,60.13
2018-11-25T20:27:48.423Z,56.83
2018-11-25T20:32:56.442Z,63.63
2018-11-25T20:38:05.464Z,58.63
2018-11-25T20:43:07.855Z,52.63
2018-11-25T20:48:10.287Z,51.17
2018-11-25T20:53:18.320Z,57.33
2018-11-25T20:58:20.643Z,61.17
2018-11-25T21:03:23.105Z,55.70
2018-11-25T21:08:27.433Z,55.73
2018-11-25T21:13:27.810Z,60.27
2018-11-25T21:18:30.104Z,65.37
2018-11-25T21:23:32.425Z,71.00
2018-11-25T21:28:34.766Z,73.83
2018-11-25T21:33:37.221Z,77.63
2018-11-25T21:38:39.553Z,79.00
2018-11-25T21:43:41.932Z,78.43
2018-11-25T21:48:44.217Z,72.90
2018-11-25T21:53:46.469Z,72.80
2018-11-25T21:58:48.912Z,71.13
2018-11-25T22:03:51.300Z,73.00
2018-11-25T22:08:53.579Z,63.07
2018-11-25T22:13:55.858Z,52.77
2018-11-25T22:18:58.135Z,51.13
2018-11-25T22:24:00.421Z,50.93
2018-11-25T22:29:02.852Z,52.47
2018-11-25T22:34:05.458Z,56.60
2018-11-25T22:39:08.856Z,58.63
2018-11-25T22:44:11.229Z,54.10
2018-11-25T22:49:13.491Z,61.63
2018-11-25T22:54:15.874Z,64.27
2018-11-25T22:59:18.219Z,71.67
2018-11-25T23:04:32.012Z,78.10
2018-11-25T23:09:34.311Z,81.60
2018-11-25T23:14:36.575Z,79.17
2018-11-25T23:19:38.857Z,93.67
2018-11-25T23:24:41.326Z,93.23
2018-11-25T23:29:43.643Z,107.47
2018-11-25T23:34:45.957Z,116.90
2018-11-25T23:39:48.272Z,114.43
2018-11-25T23:44:50.595Z,134.40
2018-11-25T23:49:52.984Z,128.23
2018-11-25T23:54:55.273Z,123.43
2018-11-25T23:59:57.615Z,124.10
